Milroy, Indiana
Current Conditions -  °F | °C
As of 6:53 AM on Sunday 21 Dec 2014 (Local Time) from KGEZ Reporting Station
Haze Haze  
Wind Chill: 15°   Ceiling: Unl
Heat Index: 23°   Visibility: 5mi
Dew Point: 19°   Wind: 7mph
Humidity: 85%   Direction: 110°ESE
Pressure: 30.28"   Gusts: NA
Location:  39.5°N, 85.47°W
Report Text: KGEZ 211153Z AUTO 11006KT 5SM BR CLR M05/M07 A3028 RMK AO2 SLP264 I6000 T10501072 11033 21056 55005
Loading
Personal Weather Stations






























Interactive Weather Map New forecast layout! Learn more

10-Day Weather Forecast

Advertisements
Track Severe Weather on mobile